Janice Roberts — WDD6360 — position and weather

sailwx.info

Track history (hours):
 
Tides and Currents Weather Stations Pressure Air Temp Water Temp Dewpoint Dewpoint Depression Visibility Wind Speed Wind Dir Waves Ship Positions

Janice Roberts

Owner: Florida Marine, LLC, Mandeville, LA. More information available from US FCC via Universal Licensing System and Coast Guard Vessel Documentation Center.

Last reported at 2017-Nov-17 07:34 UTC. Time now 2017-Nov-21 13:37 UTC.
Position N 31°59' W 091°07'.

Length 27 m; draft 3.6 m.

Type: Towing. MMSI: 367171930.

Date/timePositionNaut miles runAvg speedWind from/ knotsBaromVisibWave heightAir tempDewpointWater temp
2017-Nov-17 07:34N 31°59' W 091°07'1 8.6
2017-Nov-17 07:27N 31°60' W 091°06'5 7.5
2017-Nov-17 06:45N 32°05' W 091°05'1 4.7
2017-Nov-17 06:30N 32°06' W 091°06'2 4.6
2017-Nov-17 06:00N 32°08' W 091°05'4 8.2
2017-Nov-17 05:30N 32°08' W 091°00'5 9.6
2017-Nov-17 05:00N 32°13' W 090°59'4 8.9
2017-Nov-17 04:30N 32°17' W 090°57'4 7.8
2017-Nov-17 04:00N 32°20' W 090°54'3 6.2
2017-Nov-17 03:30N 32°21' W 090°58'3 5.8
2017-Nov-17 03:00N 32°23' W 090°60'4 7.6
2017-Nov-17 02:30N 32°26' W 091°03'4 9.0
2017-Nov-17 02:00N 32°29' W 091°07'5 9.5
2017-Nov-17 01:30N 32°33' W 091°06'5 9.0
2017-Nov-17 01:00N 32°37' W 091°09'8 7.9
2017-Nov-16 23:58N 32°44' W 091°04'7 0.2
2017-Nov-15 00:53N 32°50' W 091°09'1 2.2
2017-Nov-15 00:30N 32°49' W 091°09'2 3.3
2017-Nov-15 00:00N 32°47' W 091°09'2 3.5
2017-Nov-14 23:20N 32°45' W 091°09'5 1.1
2017-Nov-14 18:08N 32°40' W 091°08'2 4.3
2017-Nov-14 17:40N 32°38' W 091°09'1 4.3
2017-Nov-14 17:29N 32°37' W 091°09'2 4.6
2017-Nov-14 17:00N 32°35' W 091°08'1 1.2
2017-Nov-14 16:30N 32°35' W 091°07'2 3.9
2017-Nov-14 16:00N 32°33' W 091°06'2 4.6
2017-Nov-14 15:30N 32°31' W 091°07'2 4.8
2017-Nov-14 15:00N 32°28' W 091°07'3 5.1
2017-Nov-14 14:30N 32°27' W 091°04'3 5.0
2017-Nov-14 14:00N 32°26' W 091°02'2 4.8
2017-Nov-14 13:30N 32°24' W 090°59'2 4.0
2017-Nov-14 13:00N 32°22' W 091°00'2 4.2
2017-Nov-14 12:30N 32°21' W 090°58'2 4.0
2017-Nov-14 12:00N 32°21' W 090°56'2 4.3
2017-Nov-14 11:30N 32°19' W 090°54'1 2.8
2017-Nov-14 11:00N 32°18' W 090°55'0 0.0
2017-Nov-14 10:30N 32°18' W 090°55'0 0.0
2017-Nov-14 10:00N 32°18' W 090°55'0 0.0
2017-Nov-14 09:30N 32°18' W 090°55'0 0.1
2017-Nov-14 09:00N 32°18' W 090°55'1 2.2
2017-Nov-14 08:30N 32°17' W 090°56'1 2.4
2017-Nov-14 08:00N 32°17' W 090°57'2 4.9
2017-Nov-14 07:30N 32°15' W 090°59'2 4.6
2017-Nov-14 07:00N 32°12' W 090°59'2 4.6
2017-Nov-14 06:30N 32°10' W 091°00'2 4.3
2017-Nov-14 06:00N 32°08' W 091°00'2 4.3
2017-Nov-14 05:30N 32°07' W 091°03'2 4.5
2017-Nov-14 05:00N 32°08' W 091°06'2 3.4
2017-Nov-14 04:30N 32°06' W 091°06'4 4.8
2017-Nov-14 03:45N 32°03' W 091°03'1 5.4
2017-Nov-14 03:30N 32°02' W 091°04'1 2.7
2017-Nov-14 03:00N 32°01' W 091°05'1 1.5
2017-Nov-14 02:30N 32°00' W 091°05'4 4.6
2017-Nov-14 01:33N 31°59' W 091°10'1 5.1
2017-Nov-14 01:26N 31°58' W 091°11'20 0.5
2017-Nov-12 11:03N 31°42' W 091°24'2 8.8
2017-Nov-12 10:47N 31°44' W 091°23'3 9.5
2017-Nov-12 10:28N 31°46' W 091°22'4 9.4
2017-Nov-12 10:00N 31°51' W 091°21'4 8.5
2017-Nov-12 09:30N 31°51' W 091°16'4 8.9
2017-Nov-12 09:00N 31°55' W 091°12'4 8.8
2017-Nov-12 08:30N 31°59' W 091°10'4 8.9
2017-Nov-12 08:00N 31°60' W 091°05'4 9.0
2017-Nov-12 07:30N 32°04' W 091°04'4 8.3
2017-Nov-12 07:00N 32°08' W 091°06'4 8.7
2017-Nov-12 06:30N 32°07' W 091°01'5 9.3
2017-Nov-12 06:00N 32°12' W 090°60'5 9.2
2017-Nov-12 05:30N 32°16' W 090°58'4 8.9
2017-Nov-12 05:00N 32°19' W 090°54'3 6.8
2017-Nov-12 04:30N 32°21' W 090°58'3 6.0
2017-Nov-12 04:00N 32°23' W 090°60'4 7.5
2017-Nov-12 03:30N 32°26' W 091°03'3 6.7
2017-Nov-12 03:00N 32°28' W 091°06'4 7.7
2017-Nov-12 02:30N 32°32' W 091°06'4 8.0
2017-Nov-12 02:00N 32°35' W 091°08'4 7.9
2017-Nov-12 01:30N 32°39' W 091°09'13 0.6
2017-Nov-11 05:53N 32°52' W 091°07'4 4.3
2017-Nov-11 04:59N 32°49' W 091°09'2 4.5
2017-Nov-11 04:29N 32°46' W 091°09'7 1.9
2017-Nov-11 01:07N 32°40' W 091°07'1 4.8
2017-Nov-11 01:00N 32°40' W 091°07'2 4.2
2017-Nov-11 00:29N 32°39' W 091°09'1 1.5
2017-Nov-11 00:00N 32°38' W 091°09'1 2.7
2017-Nov-10 23:30N 32°37' W 091°09'2 4.6
2017-Nov-10 23:00N 32°35' W 091°07'2 4.0
2017-Nov-10 22:30N 32°33' W 091°06'3 5.8
2017-Nov-10 22:00N 32°30' W 091°07'3 5.6
2017-Nov-10 21:30N 32°28' W 091°06'3 5.2
2017-Nov-10 21:00N 32°26' W 091°03'3 5.1
2017-Nov-10 20:30N 32°25' W 091°00'2 4.5
2017-Nov-10 20:00N 32°23' W 090°60'2 4.1
2017-Nov-10 19:30N 32°21' W 090°60'3 5.2
2017-Nov-10 19:00N 32°21' W 090°56'2 5.0
2017-Nov-10 18:30N 32°20' W 090°54'2 4.1
2017-Nov-10 18:00N 32°18' W 090°55'1 1.7
2017-Nov-10 17:30N 32°17' W 090°56'2 4.7
2017-Nov-10 17:00N 32°16' W 090°58'2 4.5
2017-Nov-10 16:30N 32°14' W 090°59'2 4.7
2017-Nov-10 16:00N 32°11' W 090°60'2 4.8
2017-Nov-10 15:30N 32°09' W 091°00'2 4.4
2017-Nov-10 15:00N 32°07' W 091°02'2 4.3
2017-Nov-10 14:30N 32°08' W 091°04'2 4.1
2017-Nov-10 14:00N 32°07' W 091°07'4 2.8
2017-Nov-10 12:36N 32°04' W 091°04'1 4.7
2017-Nov-10 12:27N 32°04' W 091°03'3 5.8
2017-Nov-10 11:52N 32°00' W 091°05'2 5.1
2017-Nov-10 11:28N 31°59' W 091°07'2 4.7
2017-Nov-10 10:58N 31°59' W 091°09'2 4.4
2017-Nov-10 10:30N 31°58' W 091°11'8 3.9
2017-Nov-10 08:35N 31°51' W 091°16'1 4.7
2017-Nov-10 08:28N 31°51' W 091°17'2 4.7
2017-Nov-10 07:59N 31°51' W 091°20'2 3.7
2017-Nov-10 07:28N 31°50' W 091°21'5 4.9
2017-Nov-10 06:27N 31°45' W 091°22'  
2017-Nov-07 19:22N 29°51' W 091°55'2 4.9
2017-Nov-07 19:00N 29°51' W 091°57'2 4.6
2017-Nov-07 18:30N 29°50' W 091°59'2 4.5
2017-Nov-07 18:00N 29°49' W 092°02'2 4.7
2017-Nov-07 17:30N 29°48' W 092°04'2 4.5
2017-Nov-07 17:00N 29°48' W 092°07'2 4.4
2017-Nov-07 16:30N 29°47' W 092°09'2 4.1
2017-Nov-07 16:00N 29°47' W 092°11'2 3.8
2017-Nov-07 15:30N 29°48' W 092°13'1 2.5
2017-Nov-07 15:00N 29°48' W 092°15'0 0.3
2017-Nov-07 14:30N 29°48' W 092°15'2 4.1
2017-Nov-07 14:00N 29°49' W 092°17'2 3.9
2017-Nov-07 13:30N 29°50' W 092°19'0 0.8
2017-Nov-07 13:00N 29°50' W 092°19'0 0.0
2017-Nov-07 12:30N 29°50' W 092°19'0 0.0
2017-Nov-07 12:00N 29°50' W 092°19'0 0.0
2017-Nov-07 11:30N 29°50' W 092°19'0 0.0
2017-Nov-07 11:00N 29°50' W 092°19'0 0.0
2017-Nov-07 10:30N 29°50' W 092°19'0 0.0
2017-Nov-07 10:00N 29°50' W 092°19'0 0.6
2017-Nov-07 09:30N 29°50' W 092°19'2 4.0
2017-Nov-07 09:00N 29°51' W 092°22'2 4.2
2017-Nov-07 08:30N 29°53' W 092°23'3 4.3
2017-Nov-07 07:47N 29°53' W 092°26'  
Track history (hours):
 
Tides and Currents Weather Stations Pressure Air Temp Water Temp Dewpoint Dewpoint Depression Visibility Wind Speed Wind Dir Waves Ship Positions

Janice Roberts

Owner: Florida Marine, LLC, Mandeville, LA. More information available from US FCC via Universal Licensing System and Coast Guard Vessel Documentation Center.

Last reported at 2017-Nov-17 07:34 UTC. Time now 2017-Nov-21 13:37 UTC.
Position N 31°59' W 091°07'.

Length 27 m; draft 3.6 m.

Type: Towing. MMSI: 367171930.

Date/timePositionNaut miles runAvg speedWind from/ knotsBaromVisibWave heightAir tempDewpointWater temp
2017-Nov-17 07:34N 31°59' W 091°07'1 8.6
2017-Nov-17 07:27N 31°60' W 091°06'5 7.5
2017-Nov-17 06:45N 32°05' W 091°05'1 4.7
2017-Nov-17 06:30N 32°06' W 091°06'2 4.6
2017-Nov-17 06:00N 32°08' W 091°05'4 8.2
2017-Nov-17 05:30N 32°08' W 091°00'5 9.6
2017-Nov-17 05:00N 32°13' W 090°59'4 8.9
2017-Nov-17 04:30N 32°17' W 090°57'4 7.8
2017-Nov-17 04:00N 32°20' W 090°54'3 6.2
2017-Nov-17 03:30N 32°21' W 090°58'3 5.8
2017-Nov-17 03:00N 32°23' W 090°60'4 7.6
2017-Nov-17 02:30N 32°26' W 091°03'4 9.0
2017-Nov-17 02:00N 32°29' W 091°07'5 9.5
2017-Nov-17 01:30N 32°33' W 091°06'5 9.0
2017-Nov-17 01:00N 32°37' W 091°09'8 7.9
2017-Nov-16 23:58N 32°44' W 091°04'7 0.2
2017-Nov-15 00:53N 32°50' W 091°09'1 2.2
2017-Nov-15 00:30N 32°49' W 091°09'2 3.3
2017-Nov-15 00:00N 32°47' W 091°09'2 3.5
2017-Nov-14 23:20N 32°45' W 091°09'5 1.1
2017-Nov-14 18:08N 32°40' W 091°08'2 4.3
2017-Nov-14 17:40N 32°38' W 091°09'1 4.3
2017-Nov-14 17:29N 32°37' W 091°09'2 4.6
2017-Nov-14 17:00N 32°35' W 091°08'1 1.2
2017-Nov-14 16:30N 32°35' W 091°07'2 3.9
2017-Nov-14 16:00N 32°33' W 091°06'2 4.6
2017-Nov-14 15:30N 32°31' W 091°07'2 4.8
2017-Nov-14 15:00N 32°28' W 091°07'3 5.1
2017-Nov-14 14:30N 32°27' W 091°04'3 5.0
2017-Nov-14 14:00N 32°26' W 091°02'2 4.8
2017-Nov-14 13:30N 32°24' W 090°59'2 4.0
2017-Nov-14 13:00N 32°22' W 091°00'2 4.2
2017-Nov-14 12:30N 32°21' W 090°58'2 4.0
2017-Nov-14 12:00N 32°21' W 090°56'2 4.3
2017-Nov-14 11:30N 32°19' W 090°54'1 2.8
2017-Nov-14 11:00N 32°18' W 090°55'0 0.0
2017-Nov-14 10:30N 32°18' W 090°55'0 0.0
2017-Nov-14 10:00N 32°18' W 090°55'0 0.0
2017-Nov-14 09:30N 32°18' W 090°55'0 0.1
2017-Nov-14 09:00N 32°18' W 090°55'1 2.2
2017-Nov-14 08:30N 32°17' W 090°56'1 2.4
2017-Nov-14 08:00N 32°17' W 090°57'2 4.9
2017-Nov-14 07:30N 32°15' W 090°59'2 4.6
2017-Nov-14 07:00N 32°12' W 090°59'2 4.6
2017-Nov-14 06:30N 32°10' W 091°00'2 4.3
2017-Nov-14 06:00N 32°08' W 091°00'2 4.3
2017-Nov-14 05:30N 32°07' W 091°03'2 4.5
2017-Nov-14 05:00N 32°08' W 091°06'2 3.4
2017-Nov-14 04:30N 32°06' W 091°06'4 4.8
2017-Nov-14 03:45N 32°03' W 091°03'1 5.4
2017-Nov-14 03:30N 32°02' W 091°04'1 2.7
2017-Nov-14 03:00N 32°01' W 091°05'1 1.5
2017-Nov-14 02:30N 32°00' W 091°05'4 4.6
2017-Nov-14 01:33N 31°59' W 091°10'1 5.1
2017-Nov-14 01:26N 31°58' W 091°11'20 0.5
2017-Nov-12 11:03N 31°42' W 091°24'2 8.8
2017-Nov-12 10:47N 31°44' W 091°23'3 9.5
2017-Nov-12 10:28N 31°46' W 091°22'4 9.4
2017-Nov-12 10:00N 31°51' W 091°21'4 8.5
2017-Nov-12 09:30N 31°51' W 091°16'4 8.9
2017-Nov-12 09:00N 31°55' W 091°12'4 8.8
2017-Nov-12 08:30N 31°59' W 091°10'4 8.9
2017-Nov-12 08:00N 31°60' W 091°05'4 9.0
2017-Nov-12 07:30N 32°04' W 091°04'4 8.3
2017-Nov-12 07:00N 32°08' W 091°06'4 8.7
2017-Nov-12 06:30N 32°07' W 091°01'5 9.3
2017-Nov-12 06:00N 32°12' W 090°60'5 9.2
2017-Nov-12 05:30N 32°16' W 090°58'4 8.9
2017-Nov-12 05:00N 32°19' W 090°54'3 6.8
2017-Nov-12 04:30N 32°21' W 090°58'3 6.0
2017-Nov-12 04:00N 32°23' W 090°60'4 7.5
2017-Nov-12 03:30N 32°26' W 091°03'3 6.7
2017-Nov-12 03:00N 32°28' W 091°06'4 7.7
2017-Nov-12 02:30N 32°32' W 091°06'4 8.0
2017-Nov-12 02:00N 32°35' W 091°08'4 7.9
2017-Nov-12 01:30N 32°39' W 091°09'13 0.6
2017-Nov-11 05:53N 32°52' W 091°07'4 4.3
2017-Nov-11 04:59N 32°49' W 091°09'2 4.5
2017-Nov-11 04:29N 32°46' W 091°09'7 1.9
2017-Nov-11 01:07N 32°40' W 091°07'1 4.8
2017-Nov-11 01:00N 32°40' W 091°07'2 4.2
2017-Nov-11 00:29N 32°39' W 091°09'1 1.5
2017-Nov-11 00:00N 32°38' W 091°09'1 2.7
2017-Nov-10 23:30N 32°37' W 091°09'2 4.6
2017-Nov-10 23:00N 32°35' W 091°07'2 4.0
2017-Nov-10 22:30N 32°33' W 091°06'3 5.8
2017-Nov-10 22:00N 32°30' W 091°07'3 5.6
2017-Nov-10 21:30N 32°28' W 091°06'3 5.2
2017-Nov-10 21:00N 32°26' W 091°03'3 5.1
2017-Nov-10 20:30N 32°25' W 091°00'2 4.5
2017-Nov-10 20:00N 32°23' W 090°60'2 4.1
2017-Nov-10 19:30N 32°21' W 090°60'3 5.2
2017-Nov-10 19:00N 32°21' W 090°56'2 5.0
2017-Nov-10 18:30N 32°20' W 090°54'2 4.1
2017-Nov-10 18:00N 32°18' W 090°55'1 1.7
2017-Nov-10 17:30N 32°17' W 090°56'2 4.7
2017-Nov-10 17:00N 32°16' W 090°58'2 4.5
2017-Nov-10 16:30N 32°14' W 090°59'2 4.7
2017-Nov-10 16:00N 32°11' W 090°60'2 4.8
2017-Nov-10 15:30N 32°09' W 091°00'2 4.4
2017-Nov-10 15:00N 32°07' W 091°02'2 4.3
2017-Nov-10 14:30N 32°08' W 091°04'2 4.1
2017-Nov-10 14:00N 32°07' W 091°07'4 2.8
2017-Nov-10 12:36N 32°04' W 091°04'1 4.7
2017-Nov-10 12:27N 32°04' W 091°03'3 5.8
2017-Nov-10 11:52N 32°00' W 091°05'2 5.1
2017-Nov-10 11:28N 31°59' W 091°07'2 4.7
2017-Nov-10 10:58N 31°59' W 091°09'2 4.4
2017-Nov-10 10:30N 31°58' W 091°11'8 3.9
2017-Nov-10 08:35N 31°51' W 091°16'1 4.7
2017-Nov-10 08:28N 31°51' W 091°17'2 4.7
2017-Nov-10 07:59N 31°51' W 091°20'2 3.7
2017-Nov-10 07:28N 31°50' W 091°21'5 4.9
2017-Nov-10 06:27N 31°45' W 091°22'  
2017-Nov-07 19:22N 29°51' W 091°55'2 4.9
2017-Nov-07 19:00N 29°51' W 091°57'2 4.6
2017-Nov-07 18:30N 29°50' W 091°59'2 4.5
2017-Nov-07 18:00N 29°49' W 092°02'2 4.7
2017-Nov-07 17:30N 29°48' W 092°04'2 4.5
2017-Nov-07 17:00N 29°48' W 092°07'2 4.4
2017-Nov-07 16:30N 29°47' W 092°09'2 4.1
2017-Nov-07 16:00N 29°47' W 092°11'2 3.8
2017-Nov-07 15:30N 29°48' W 092°13'1 2.5
2017-Nov-07 15:00N 29°48' W 092°15'0 0.3
2017-Nov-07 14:30N 29°48' W 092°15'2 4.1
2017-Nov-07 14:00N 29°49' W 092°17'2 3.9
2017-Nov-07 13:30N 29°50' W 092°19'0 0.8
2017-Nov-07 13:00N 29°50' W 092°19'0 0.0
2017-Nov-07 12:30N 29°50' W 092°19'0 0.0
2017-Nov-07 12:00N 29°50' W 092°19'0 0.0
2017-Nov-07 11:30N 29°50' W 092°19'0 0.0
2017-Nov-07 11:00N 29°50' W 092°19'0 0.0
2017-Nov-07 10:30N 29°50' W 092°19'0 0.0
2017-Nov-07 10:00N 29°50' W 092°19'0 0.6
2017-Nov-07 09:30N 29°50' W 092°19'2 4.0
2017-Nov-07 09:00N 29°51' W 092°22'2 4.2
2017-Nov-07 08:30N 29°53' W 092°23'3 4.3
2017-Nov-07 07:47N 29°53' W 092°26'  

Dump ship's entire track history